Flight Number: EUR2346 Duration: 1:10
Departure: Stockholm Arlanda (ESSA) at 18:20 Distance: 317 Nm
Arrival: Gdansk Zechowo (EPGD) at 19:30 Equipment: CRJ700

Weather Information
Stockholm / Arlanda, Sweden (ESSA) 59-39N 017-57E 61M Oct 19, 2018 - 02:20 PM EDT / 2018.10.19 1820 UTC
Wind: from the S (170 degrees) at 3 MPH (3 KT):0
Visibility: greater than 7 mile(s):0 Temperature: 37 F (3 C) Dew Point: 33 F (1 C) Relative Humidity: 86% Pressure (altimeter): 30.15 in. Hg (1021 hPa)
ob: ESSA 191820Z 17003KT CAVOK 03/01 Q1021 NOSIG cycle: 18
Sunrise: 05:42 Sunset: 15:23 (UTC)

Gdansk-Rebiechowo, Poland (EPGD) 54-23N 018-28E 138M Oct 19, 2018 - 02:30 PM EDT / 2018.10.19 1830 UTC
Wind: Variable at 1 MPH (1 KT):0
Visibility: greater than 7 mile(s):0 Temperature: 42 F (6 C) Dew Point: 39 F (4 C) Relative Humidity: 86% Pressure (altimeter): 30.24 in. Hg (1024 hPa)
ob: EPGD 191830Z VRB01KT CAVOK 06/04 Q1024 cycle: 18
Sunrise: 05:27 Sunset: 15:34 (UTC)

TAF:2018/10/19 18:33 TAF TAF EPGD 191730Z 1918/2018 VRB03KT CAVOK PROB40 2001/2007 2500 BR BECMG 2006/2008 30010KT PROB40 TEMPO 2010/2018 -SHRA BKN020TCU

Previous Pireps for this route
Date Aircraft Flight time Fuel used Landing rate On time
2015-01-18CRJ7001.1530190No
2015-05-07CRJ7000.5833110Yes
2015-05-08CRJ7000.5533420Yes
2015-06-10CRJ70001.213990-192Yes
2015-07-04CRJ7001.152988-239Yes
2016-01-29B73701.1911093-147Charter
(pireps marked green are flown by you)

Route map